sensor_id;sensor_type;location;lat;lon;timestamp;pressure;altitude;pressure_sealevel;temperature;humidity
6345;BME280;3205;42.666;23.264;2023-07-31T00:01:17;94114.31;;;22.52;100.00
6345;BME280;3205;42.666;23.264;2023-07-31T00:03:43;94117.25;;;22.39;100.00
6345;BME280;3205;42.666;23.264;2023-07-31T00:06:09;94118.13;;;22.32;100.00
6345;BME280;3205;42.666;23.264;2023-07-31T00:08:36;94112.56;;;22.20;100.00
6345;BME280;3205;42.666;23.264;2023-07-31T00:11:02;94123.41;;;22.16;100.00
6345;BME280;3205;42.666;23.264;2023-07-31T00:13:29;94115.25;;;22.20;100.00
6345;BME280;3205;42.666;23.264;2023-07-31T00:15:55;94119.47;;;22.21;100.00
6345;BME280;3205;42.666;23.264;2023-07-31T00:18:21;94118.28;;;22.22;100.00
6345;BME280;3205;42.666;23.264;2023-07-31T00:20:47;94121.28;;;22.27;100.00
6345;BME280;3205;42.666;23.264;2023-07-31T00:23:13;94106.34;;;22.23;100.00
6345;BME280;3205;42.666;23.264;2023-07-31T00:25:40;94105.84;;;22.08;100.00
6345;BME280;3205;42.666;23.264;2023-07-31T00:28:06;94096.34;;;22.00;100.00
6345;BME280;3205;42.666;23.264;2023-07-31T00:30:32;94093.59;;;22.04;100.00
6345;BME280;3205;42.666;23.264;2023-07-31T00:32:59;94087.88;;;22.02;100.00
6345;BME280;3205;42.666;23.264;2023-07-31T00:35:25;94082.84;;;22.04;100.00
6345;BME280;3205;42.666;23.264;2023-07-31T00:37:51;94077.56;;;21.97;100.00
6345;BME280;3205;42.666;23.264;2023-07-31T00:40:17;94067.16;;;21.99;100.00
6345;BME280;3205;42.666;23.264;2023-07-31T00:42:44;94078.63;;;22.03;100.00
6345;BME280;3205;42.666;23.264;2023-07-31T00:45:10;94071.91;;;21.91;100.00
6345;BME280;3205;42.666;23.264;2023-07-31T00:47:36;94080.81;;;21.88;100.00
6345;BME280;3205;42.666;23.264;2023-07-31T00:50:03;94080.16;;;21.81;100.00
6345;BME280;3205;42.666;23.264;2023-07-31T00:52:29;94073.53;;;21.85;100.00
6345;BME280;3205;42.666;23.264;2023-07-31T00:54:55;94079.34;;;21.84;100.00
6345;BME280;3205;42.666;23.264;2023-07-31T00:57:21;94080.44;;;21.86;100.00
6345;BME280;3205;42.666;23.264;2023-07-31T00:59:48;94081.44;;;21.96;100.00
6345;BME280;3205;42.666;23.264;2023-07-31T01:02:15;94082.47;;;22.02;100.00
6345;BME280;3205;42.666;23.264;2023-07-31T01:04:42;94076.66;;;22.07;100.00
6345;BME280;3205;42.666;23.264;2023-07-31T01:07:11;94076.78;;;22.00;100.00
6345;BME280;3205;42.666;23.264;2023-07-31T01:09:44;94077.16;;;21.98;100.00
6345;BME280;3205;42.666;23.264;2023-07-31T01:12:14;94070.59;;;21.99;100.00
6345;BME280;3205;42.666;23.264;2023-07-31T01:14:40;94071.50;;;21.93;100.00
6345;BME280;3205;42.666;23.264;2023-07-31T01:17:16;94065.75;;;21.91;100.00
6345;BME280;3205;42.666;23.264;2023-07-31T01:19:43;94049.44;;;21.78;100.00
6345;BME280;3205;42.666;23.264;2023-07-31T01:22:25;94062.09;;;21.81;100.00
6345;BME280;3205;42.666;23.264;2023-07-31T01:25:05;94058.00;;;21.73;100.00
6345;BME280;3205;42.666;23.264;2023-07-31T01:27:49;94071.50;;;21.70;100.00
6345;BME280;3205;42.666;23.264;2023-07-31T01:30:22;94060.44;;;21.65;100.00
6345;BME280;3205;42.666;23.264;2023-07-31T01:32:52;94055.06;;;21.65;100.00
6345;BME280;3205;42.666;23.264;2023-07-31T01:35:20;94061.31;;;21.58;100.00
6345;BME280;3205;42.666;23.264;2023-07-31T01:37:46;94064.06;;;21.55;100.00
6345;BME280;3205;42.666;23.264;2023-07-31T01:40:12;94057.94;;;21.51;100.00
6345;BME280;3205;42.666;23.264;2023-07-31T01:42:39;94054.63;;;21.43;100.00
6345;BME280;3205;42.666;23.264;2023-07-31T01:45:06;94055.78;;;21.42;100.00
6345;BME280;3205;42.666;23.264;2023-07-31T01:47:32;94045.00;;;21.42;100.00
6345;BME280;3205;42.666;23.264;2023-07-31T01:49:59;94047.00;;;21.38;100.00
6345;BME280;3205;42.666;23.264;2023-07-31T01:52:25;94048.69;;;21.29;100.00
6345;BME280;3205;42.666;23.264;2023-07-31T01:54:51;94058.78;;;21.21;100.00
6345;BME280;3205;42.666;23.264;2023-07-31T01:57:17;94051.66;;;21.11;100.00
6345;BME280;3205;42.666;23.264;2023-07-31T01:59:44;94052.50;;;21.05;100.00
6345;BME280;3205;42.666;23.264;2023-07-31T02:02:10;94052.03;;;21.10;100.00
6345;BME280;3205;42.666;23.264;2023-07-31T02:04:36;94057.72;;;21.15;100.00
6345;BME280;3205;42.666;23.264;2023-07-31T02:07:04;94060.03;;;21.13;100.00
6345;BME280;3205;42.666;23.264;2023-07-31T02:09:30;94058.53;;;21.12;100.00
6345;BME280;3205;42.666;23.264;2023-07-31T02:11:56;94062.69;;;21.17;100.00
6345;BME280;3205;42.666;23.264;2023-07-31T02:14:22;94061.38;;;21.28;100.00
6345;BME280;3205;42.666;23.264;2023-07-31T02:16:50;94064.38;;;21.34;100.00
6345;BME280;3205;42.666;23.264;2023-07-31T02:19:17;94058.94;;;21.37;100.00
6345;BME280;3205;42.666;23.264;2023-07-31T02:21:43;94065.13;;;21.34;100.00
6345;BME280;3205;42.666;23.264;2023-07-31T02:24:09;94058.78;;;21.48;100.00
6345;BME280;3205;42.666;23.264;2023-07-31T02:26:35;94070.22;;;21.52;100.00
6345;BME280;3205;42.666;23.264;2023-07-31T02:29:01;94067.44;;;21.59;100.00
6345;BME280;3205;42.666;23.264;2023-07-31T02:31:28;94059.03;;;21.53;100.00
6345;BME280;3205;42.666;23.264;2023-07-31T02:33:54;94071.25;;;21.61;100.00
6345;BME280;3205;42.666;23.264;2023-07-31T02:36:20;94065.47;;;21.63;100.00
6345;BME280;3205;42.666;23.264;2023-07-31T02:38:47;94057.34;;;21.66;100.00
6345;BME280;3205;42.666;23.264;2023-07-31T02:41:13;94067.66;;;21.71;100.00
6345;BME280;3205;42.666;23.264;2023-07-31T02:43:39;94073.16;;;21.87;100.00
6345;BME280;3205;42.666;23.264;2023-07-31T02:46:05;94070.78;;;21.89;100.00
6345;BME280;3205;42.666;23.264;2023-07-31T02:48:32;94078.75;;;21.96;100.00
6345;BME280;3205;42.666;23.264;2023-07-31T02:50:58;94082.97;;;21.97;100.00
6345;BME280;3205;42.666;23.264;2023-07-31T02:53:25;94083.72;;;21.97;100.00
6345;BME280;3205;42.666;23.264;2023-07-31T02:55:51;94085.19;;;22.02;100.00
6345;BME280;3205;42.666;23.264;2023-07-31T02:58:17;94079.66;;;22.09;100.00
6345;BME280;3205;42.666;23.264;2023-07-31T03:00:43;94080.03;;;22.11;100.00
6345;BME280;3205;42.666;23.264;2023-07-31T03:03:10;94086.94;;;22.12;100.00
6345;BME280;3205;42.666;23.264;2023-07-31T03:05:36;94093.31;;;22.21;100.00
6345;BME280;3205;42.666;23.264;2023-07-31T03:08:03;94084.66;;;22.10;100.00
6345;BME280;3205;42.666;23.264;2023-07-31T03:10:29;94079.91;;;22.18;100.00
6345;BME280;3205;42.666;23.264;2023-07-31T03:12:55;94094.66;;;22.10;100.00
6345;BME280;3205;42.666;23.264;2023-07-31T03:15:21;94094.34;;;22.04;100.00
6345;BME280;3205;42.666;23.264;2023-07-31T03:17:47;94097.06;;;22.04;100.00
6345;BME280;3205;42.666;23.264;2023-07-31T03:20:14;94097.81;;;22.05;100.00
6345;BME280;3205;42.666;23.264;2023-07-31T03:22:40;94096.59;;;22.09;100.00
6345;BME280;3205;42.666;23.264;2023-07-31T03:25:07;94099.63;;;22.11;100.00
6345;BME280;3205;42.666;23.264;2023-07-31T03:27:35;94097.59;;;22.19;100.00
6345;BME280;3205;42.666;23.264;2023-07-31T03:30:02;94107.56;;;22.18;100.00
6345;BME280;3205;42.666;23.264;2023-07-31T03:32:28;94110.91;;;22.26;100.00
6345;BME280;3205;42.666;23.264;2023-07-31T03:34:54;94110.50;;;22.27;100.00
6345;BME280;3205;42.666;23.264;2023-07-31T03:37:20;94114.41;;;22.23;100.00
6345;BME280;3205;42.666;23.264;2023-07-31T03:39:46;94113.72;;;22.19;100.00
6345;BME280;3205;42.666;23.264;2023-07-31T03:42:13;94123.97;;;22.27;100.00
6345;BME280;3205;42.666;23.264;2023-07-31T03:44:40;94124.69;;;22.31;100.00
6345;BME280;3205;42.666;23.264;2023-07-31T03:47:06;94131.69;;;22.25;100.00
6345;BME280;3205;42.666;23.264;2023-07-31T03:49:32;94126.38;;;22.22;100.00
6345;BME280;3205;42.666;23.264;2023-07-31T03:51:59;94130.31;;;22.17;100.00
6345;BME280;3205;42.666;23.264;2023-07-31T03:54:25;94128.84;;;22.13;100.00
6345;BME280;3205;42.666;23.264;2023-07-31T03:56:51;94126.91;;;22.13;100.00
6345;BME280;3205;42.666;23.264;2023-07-31T03:59:18;94127.88;;;22.23;100.00
6345;BME280;3205;42.666;23.264;2023-07-31T04:01:44;94123.59;;;22.25;100.00
6345;BME280;3205;42.666;23.264;2023-07-31T04:04:10;94130.63;;;22.19;100.00
6345;BME280;3205;42.666;23.264;2023-07-31T04:06:36;94136.81;;;22.20;100.00
6345;BME280;3205;42.666;23.264;2023-07-31T04:09:03;94141.03;;;22.21;100.00
6345;BME280;3205;42.666;23.264;2023-07-31T04:11:29;94133.00;;;22.17;100.00
6345;BME280;3205;42.666;23.264;2023-07-31T04:13:55;94136.75;;;22.23;100.00
6345;BME280;3205;42.666;23.264;2023-07-31T04:16:22;94139.75;;;22.25;100.00
6345;BME280;3205;42.666;23.264;2023-07-31T04:18:48;94143.59;;;22.28;100.00
6345;BME280;3205;42.666;23.264;2023-07-31T04:21:16;94142.19;;;22.20;100.00
6345;BME280;3205;42.666;23.264;2023-07-31T04:23:43;94139.28;;;22.34;100.00
6345;BME280;3205;42.666;23.264;2023-07-31T04:26:09;94146.22;;;22.31;100.00
6345;BME280;3205;42.666;23.264;2023-07-31T04:28:35;94146.53;;;22.37;100.00
6345;BME280;3205;42.666;23.264;2023-07-31T04:31:01;94150.63;;;22.44;100.00
6345;BME280;3205;42.666;23.264;2023-07-31T04:33:28;94151.72;;;22.47;100.00
6345;BME280;3205;42.666;23.264;2023-07-31T04:35:54;94143.81;;;22.59;100.00
6345;BME280;3205;42.666;23.264;2023-07-31T04:38:20;94146.78;;;22.65;100.00
6345;BME280;3205;42.666;23.264;2023-07-31T04:40:47;94143.06;;;22.78;100.00
6345;BME280;3205;42.666;23.264;2023-07-31T04:43:13;94143.47;;;22.77;100.00
6345;BME280;3205;42.666;23.264;2023-07-31T04:45:44;94136.63;;;22.72;100.00
6345;BME280;3205;42.666;23.264;2023-07-31T04:48:10;94134.81;;;22.85;100.00
6345;BME280;3205;42.666;23.264;2023-07-31T04:50:37;94146.31;;;23.09;100.00
6345;BME280;3205;42.666;23.264;2023-07-31T04:53:03;94136.25;;;23.28;100.00
6345;BME280;3205;42.666;23.264;2023-07-31T04:55:29;94133.34;;;23.39;100.00
6345;BME280;3205;42.666;23.264;2023-07-31T04:57:56;94136.75;;;23.59;100.00
6345;BME280;3205;42.666;23.264;2023-07-31T05:00:22;94123.63;;;24.08;100.00
6345;BME280;3205;42.666;23.264;2023-07-31T05:02:48;94132.44;;;25.91;100.00
6345;BME280;3205;42.666;23.264;2023-07-31T05:05:14;94134.72;;;27.49;100.00
6345;BME280;3205;42.666;23.264;2023-07-31T05:07:41;94136.63;;;28.09;100.00
6345;BME280;3205;42.666;23.264;2023-07-31T05:10:08;94152.31;;;27.66;100.00
6345;BME280;3205;42.666;23.264;2023-07-31T05:12:34;94144.91;;;26.81;100.00
6345;BME280;3205;42.666;23.264;2023-07-31T05:15:00;94137.28;;;26.21;100.00
6345;BME280;3205;42.666;23.264;2023-07-31T05:17:26;94141.41;;;25.63;100.00
6345;BME280;3205;42.666;23.264;2023-07-31T05:19:52;94139.72;;;25.29;100.00
6345;BME280;3205;42.666;23.264;2023-07-31T05:22:18;94140.91;;;25.15;100.00
6345;BME280;3205;42.666;23.264;2023-07-31T05:24:47;94139.41;;;24.98;100.00
6345;BME280;3205;42.666;23.264;2023-07-31T05:27:13;94134.44;;;24.97;100.00
6345;BME280;3205;42.666;23.264;2023-07-31T05:29:43;94133.25;;;26.38;100.00
6345;BME280;3205;42.666;23.264;2023-07-31T05:32:09;94142.22;;;26.81;100.00
6345;BME280;3205;42.666;23.264;2023-07-31T05:34:36;94148.69;;;26.62;100.00
6345;BME280;3205;42.666;23.264;2023-07-31T05:37:02;94139.16;;;26.58;100.00
6345;BME280;3205;42.666;23.264;2023-07-31T05:39:28;94139.44;;;26.94;100.00
6345;BME280;3205;42.666;23.264;2023-07-31T05:41:55;94152.91;;;27.18;100.00
6345;BME280;3205;42.666;23.264;2023-07-31T05:44:21;94143.28;;;29.19;100.00
6345;BME280;3205;42.666;23.264;2023-07-31T05:46:47;94137.41;;;31.29;100.00
6345;BME280;3205;42.666;23.264;2023-07-31T05:49:13;94128.50;;;33.90;79.97
6345;BME280;3205;42.666;23.264;2023-07-31T05:51:39;94128.53;;;35.21;61.32
6345;BME280;3205;42.666;23.264;2023-07-31T05:54:05;94139.84;;;34.34;64.84
6345;BME280;3205;42.666;23.264;2023-07-31T05:56:31;94134.16;;;33.76;66.95
6345;BME280;3205;42.666;23.264;2023-07-31T05:59:00;94149.03;;;32.10;82.56
6345;BME280;3205;42.666;23.264;2023-07-31T06:01:26;94145.69;;;32.21;89.73
6345;BME280;3205;42.666;23.264;2023-07-31T06:03:52;94156.63;;;32.55;80.78
6345;BME280;3205;42.666;23.264;2023-07-31T06:06:18;94153.91;;;31.77;85.90
6345;BME280;3205;42.666;23.264;2023-07-31T06:08:44;94149.47;;;32.09;79.50
6345;BME280;3205;42.666;23.264;2023-07-31T06:11:11;94160.00;;;31.29;82.75
6345;BME280;3205;42.666;23.264;2023-07-31T06:13:37;94156.53;;;30.35;93.06
6345;BME280;3205;42.666;23.264;2023-07-31T06:16:04;94163.97;;;29.43;98.84
6345;BME280;3205;42.666;23.264;2023-07-31T06:18:31;94156.16;;;28.92;100.00
6345;BME280;3205;42.666;23.264;2023-07-31T06:20:57;94161.72;;;28.70;100.00
6345;BME280;3205;42.666;23.264;2023-07-31T06:23:26;94163.78;;;28.49;100.00
6345;BME280;3205;42.666;23.264;2023-07-31T06:25:52;94167.59;;;28.12;100.00
6345;BME280;3205;42.666;23.264;2023-07-31T06:28:18;94166.69;;;27.76;100.00
6345;BME280;3205;42.666;23.264;2023-07-31T06:30:44;94165.63;;;27.73;100.00
6345;BME280;3205;42.666;23.264;2023-07-31T06:33:11;94160.78;;;27.68;100.00
6345;BME280;3205;42.666;23.264;2023-07-31T06:35:37;94169.31;;;27.88;100.00
6345;BME280;3205;42.666;23.264;2023-07-31T06:38:03;94164.59;;;28.19;100.00
6345;BME280;3205;42.666;23.264;2023-07-31T06:40:30;94160.63;;;28.59;100.00
6345;BME280;3205;42.666;23.264;2023-07-31T06:42:56;94157.66;;;28.84;100.00
6345;BME280;3205;42.666;23.264;2023-07-31T06:45:22;94167.81;;;28.92;100.00
6345;BME280;3205;42.666;23.264;2023-07-31T06:47:48;94162.97;;;29.05;100.00
6345;BME280;3205;42.666;23.264;2023-07-31T06:50:15;94163.09;;;29.11;100.00
6345;BME280;3205;42.666;23.264;2023-07-31T06:52:41;94163.91;;;29.79;100.00
6345;BME280;3205;42.666;23.264;2023-07-31T06:55:17;94159.63;;;30.61;94.42
6345;BME280;3205;42.666;23.264;2023-07-31T06:57:43;94169.69;;;32.45;79.07
6345;BME280;3205;42.666;23.264;2023-07-31T07:00:10;94150.44;;;34.99;60.84
6345;BME280;3205;42.666;23.264;2023-07-31T07:02:37;94164.28;;;37.74;47.48
6345;BME280;3205;42.666;23.264;2023-07-31T07:05:03;94165.25;;;40.41;39.55
6345;BME280;3205;42.666;23.264;2023-07-31T07:07:30;94167.41;;;41.90;34.86
6345;BME280;3205;42.666;23.264;2023-07-31T07:09:56;94158.94;;;42.16;33.53
6345;BME280;3205;42.666;23.264;2023-07-31T07:12:22;94161.56;;;39.70;35.96
6345;BME280;3205;42.666;23.264;2023-07-31T07:14:48;94155.22;;;38.08;38.14
6345;BME280;3205;42.666;23.264;2023-07-31T07:17:15;94166.88;;;37.96;39.38
6345;BME280;3205;42.666;23.264;2023-07-31T07:19:41;94164.91;;;40.00;38.41
6345;BME280;3205;42.666;23.264;2023-07-31T07:22:07;94172.09;;;41.10;34.03
6345;BME280;3205;42.666;23.264;2023-07-31T07:24:34;94173.91;;;41.20;33.61
6345;BME280;3205;42.666;23.264;2023-07-31T07:27:00;94172.69;;;42.34;32.50
6345;BME280;3205;42.666;23.264;2023-07-31T07:29:26;94163.97;;;43.34;31.30
6345;BME280;3205;42.666;23.264;2023-07-31T07:31:52;94167.66;;;43.64;29.53
6345;BME280;3205;42.666;23.264;2023-07-31T07:34:19;94167.47;;;45.24;28.49
6345;BME280;3205;42.666;23.264;2023-07-31T07:36:45;94162.81;;;43.22;29.86
6345;BME280;3205;42.666;23.264;2023-07-31T07:39:11;94172.06;;;40.84;32.77
6345;BME280;3205;42.666;23.264;2023-07-31T07:41:38;94173.53;;;38.11;36.26
6345;BME280;3205;42.666;23.264;2023-07-31T07:44:04;94173.00;;;37.38;38.58
6345;BME280;3205;42.666;23.264;2023-07-31T07:46:30;94171.22;;;37.86;38.41
6345;BME280;3205;42.666;23.264;2023-07-31T07:48:56;94173.19;;;37.51;38.92
6345;BME280;3205;42.666;23.264;2023-07-31T07:51:22;94178.88;;;37.58;39.26
6345;BME280;3205;42.666;23.264;2023-07-31T07:53:48;94174.00;;;36.40;41.18
6345;BME280;3205;42.666;23.264;2023-07-31T07:56:14;94170.03;;;35.23;44.83
6345;BME280;3205;42.666;23.264;2023-07-31T07:58:42;94181.50;;;36.18;43.33
6345;BME280;3205;42.666;23.264;2023-07-31T08:01:08;94183.31;;;37.72;38.49
6345;BME280;3205;42.666;23.264;2023-07-31T08:03:34;94174.44;;;39.26;36.38
6345;BME280;3205;42.666;23.264;2023-07-31T08:06:01;94179.03;;;38.99;35.49
6345;BME280;3205;42.666;23.264;2023-07-31T08:08:27;94176.03;;;38.44;36.76
6345;BME280;3205;42.666;23.264;2023-07-31T08:10:54;94177.22;;;40.18;35.17
6345;BME280;3205;42.666;23.264;2023-07-31T08:13:20;94174.59;;;41.73;32.83
6345;BME280;3205;42.666;23.264;2023-07-31T08:15:47;94179.44;;;41.59;31.04
6345;BME280;3205;42.666;23.264;2023-07-31T08:18:13;94187.28;;;41.81;32.24
6345;BME280;3205;42.666;23.264;2023-07-31T08:20:39;94183.94;;;42.69;30.94
6345;BME280;3205;42.666;23.264;2023-07-31T08:23:05;94183.06;;;41.41;30.38
6345;BME280;3205;42.666;23.264;2023-07-31T08:25:34;94179.50;;;39.46;33.22
6345;BME280;3205;42.666;23.264;2023-07-31T08:28:00;94177.66;;;38.34;34.82
6345;BME280;3205;42.666;23.264;2023-07-31T08:30:26;94182.25;;;37.86;36.02
6345;BME280;3205;42.666;23.264;2023-07-31T08:32:53;94177.50;;;36.40;38.24
6345;BME280;3205;42.666;23.264;2023-07-31T08:35:19;94178.31;;;35.28;41.19
6345;BME280;3205;42.666;23.264;2023-07-31T08:37:45;94170.72;;;35.07;42.09
6345;BME280;3205;42.666;23.264;2023-07-31T08:40:11;94176.38;;;34.14;45.69
6345;BME280;3205;42.666;23.264;2023-07-31T08:42:44;94169.91;;;33.41;50.60
6345;BME280;3205;42.666;23.264;2023-07-31T08:45:13;94166.13;;;33.14;53.64
6345;BME280;3205;42.666;23.264;2023-07-31T08:47:44;94176.94;;;32.48;53.62
6345;BME280;3205;42.666;23.264;2023-07-31T08:50:12;94170.97;;;32.84;57.01
6345;BME280;3205;42.666;23.264;2023-07-31T08:52:38;94176.03;;;34.38;49.00
6345;BME280;3205;42.666;23.264;2023-07-31T08:55:05;94178.22;;;36.57;43.16
6345;BME280;3205;42.666;23.264;2023-07-31T08:57:33;94171.44;;;39.05;37.48
6345;BME280;3205;42.666;23.264;2023-07-31T09:00:00;94170.69;;;41.42;33.31
6345;BME280;3205;42.666;23.264;2023-07-31T09:02:34;94175.94;;;42.25;31.48
6345;BME280;3205;42.666;23.264;2023-07-31T09:05:01;94177.97;;;42.86;29.76
6345;BME280;3205;42.666;23.264;2023-07-31T09:07:29;94178.22;;;42.75;29.25
6345;BME280;3205;42.666;23.264;2023-07-31T09:09:57;94181.94;;;41.83;30.09
6345;BME280;3205;42.666;23.264;2023-07-31T09:12:25;94172.66;;;40.51;32.27
6345;BME280;3205;42.666;23.264;2023-07-31T09:14:51;94165.44;;;39.44;33.91
6345;BME280;3205;42.666;23.264;2023-07-31T09:17:28;94160.00;;;37.68;36.21
6345;BME280;3205;42.666;23.264;2023-07-31T09:19:55;94158.72;;;38.14;37.94
6345;BME280;3205;42.666;23.264;2023-07-31T09:22:32;94156.78;;;40.21;34.60
6345;BME280;3205;42.666;23.264;2023-07-31T09:25:08;94159.22;;;42.05;32.09
6345;BME280;3205;42.666;23.264;2023-07-31T09:27:46;94152.38;;;43.50;28.19
6345;BME280;3205;42.666;23.264;2023-07-31T09:30:12;94153.16;;;43.58;28.71
6345;BME280;3205;42.666;23.264;2023-07-31T09:32:38;94149.34;;;42.58;28.99
6345;BME280;3205;42.666;23.264;2023-07-31T09:35:13;94139.50;;;43.40;29.00
6345;BME280;3205;42.666;23.264;2023-07-31T09:37:40;94148.56;;;43.76;28.47
6345;BME280;3205;42.666;23.264;2023-07-31T09:40:07;94142.91;;;44.04;28.31
6345;BME280;3205;42.666;23.264;2023-07-31T09:42:34;94150.22;;;44.89;28.23
6345;BME280;3205;42.666;23.264;2023-07-31T09:45:07;94148.75;;;44.58;26.96
6345;BME280;3205;42.666;23.264;2023-07-31T09:47:33;94149.06;;;44.17;26.57
6345;BME280;3205;42.666;23.264;2023-07-31T09:49:59;94139.06;;;43.64;27.43
6345;BME280;3205;42.666;23.264;2023-07-31T09:52:26;94138.44;;;44.01;26.51
6345;BME280;3205;42.666;23.264;2023-07-31T09:54:53;94144.22;;;44.18;27.52
6345;BME280;3205;42.666;23.264;2023-07-31T09:57:21;94143.53;;;44.25;26.98
6345;BME280;3205;42.666;23.264;2023-07-31T09:59:48;94128.16;;;43.03;27.56
6345;BME280;3205;42.666;23.264;2023-07-31T10:02:19;94139.75;;;40.29;30.79
6345;BME280;3205;42.666;23.264;2023-07-31T10:04:47;94136.91;;;39.12;32.33
6345;BME280;3205;42.666;23.264;2023-07-31T10:07:17;94137.47;;;40.15;31.51
6345;BME280;3205;42.666;23.264;2023-07-31T10:09:44;94129.16;;;40.59;30.92
6345;BME280;3205;42.666;23.264;2023-07-31T10:12:14;94122.19;;;40.40;31.64
6345;BME280;3205;42.666;23.264;2023-07-31T10:14:43;94124.72;;;39.39;33.11
6345;BME280;3205;42.666;23.264;2023-07-31T10:17:09;94137.38;;;36.67;35.73
6345;BME280;3205;42.666;23.264;2023-07-31T10:19:36;94135.41;;;35.74;37.46
6345;BME280;3205;42.666;23.264;2023-07-31T10:22:03;94125.84;;;35.32;39.66
6345;BME280;3205;42.666;23.264;2023-07-31T10:24:31;94111.78;;;35.13;39.15
6345;BME280;3205;42.666;23.264;2023-07-31T10:26:59;94116.03;;;35.09;40.34
6345;BME280;3205;42.666;23.264;2023-07-31T10:29:27;94119.50;;;34.57;41.02
6345;BME280;3205;42.666;23.264;2023-07-31T10:31:56;94117.59;;;33.96;44.89
6345;BME280;3205;42.666;23.264;2023-07-31T10:34:23;94105.78;;;33.33;45.18
6345;BME280;3205;42.666;23.264;2023-07-31T10:36:49;94114.47;;;32.47;49.75
6345;BME280;3205;42.666;23.264;2023-07-31T10:39:34;94103.25;;;32.11;49.01
6345;BME280;3205;42.666;23.264;2023-07-31T10:42:09;94101.66;;;32.19;53.50
6345;BME280;3205;42.666;23.264;2023-07-31T10:44:36;94105.38;;;31.72;49.79
6345;BME280;3205;42.666;23.264;2023-07-31T10:47:03;94108.56;;;31.42;49.33
6345;BME280;3205;42.666;23.264;2023-07-31T10:49:29;94107.63;;;31.31;53.98
6345;BME280;3205;42.666;23.264;2023-07-31T10:51:57;94106.69;;;31.34;51.34
6345;BME280;3205;42.666;23.264;2023-07-31T10:54:23;94106.44;;;31.61;51.87
6345;BME280;3205;42.666;23.264;2023-07-31T10:56:50;94088.53;;;31.45;50.80
6345;BME280;3205;42.666;23.264;2023-07-31T10:59:17;94092.09;;;31.66;56.65
6345;BME280;3205;42.666;23.264;2023-07-31T11:01:53;94095.56;;;31.52;49.16
6345;BME280;3205;42.666;23.264;2023-07-31T11:04:23;94088.25;;;31.72;51.45
6345;BME280;3205;42.666;23.264;2023-07-31T11:07:00;94087.69;;;31.54;49.16
6345;BME280;3205;42.666;23.264;2023-07-31T11:09:31;94086.53;;;31.46;49.92
6345;BME280;3205;42.666;23.264;2023-07-31T11:11:58;94084.00;;;31.42;49.09
6345;BME280;3205;42.666;23.264;2023-07-31T11:14:24;94089.94;;;31.69;46.16
6345;BME280;3205;42.666;23.264;2023-07-31T11:16:51;94080.09;;;31.77;46.35
6345;BME280;3205;42.666;23.264;2023-07-31T11:19:21;94074.22;;;31.99;48.11
6345;BME280;3205;42.666;23.264;2023-07-31T11:21:48;94077.56;;;31.74;55.60
6345;BME280;3205;42.666;23.264;2023-07-31T11:24:15;94074.22;;;31.99;50.51
6345;BME280;3205;42.666;23.264;2023-07-31T11:26:48;94076.53;;;32.20;49.85
6345;BME280;3205;42.666;23.264;2023-07-31T11:29:14;94079.69;;;31.99;48.67
6345;BME280;3205;42.666;23.264;2023-07-31T11:31:42;94087.50;;;31.57;48.10
6345;BME280;3205;42.666;23.264;2023-07-31T11:34:09;94084.78;;;31.91;49.85
6345;BME280;3205;42.666;23.264;2023-07-31T11:36:35;94081.50;;;31.87;48.21
6345;BME280;3205;42.666;23.264;2023-07-31T11:39:04;94076.53;;;31.71;50.91
6345;BME280;3205;42.666;23.264;2023-07-31T11:41:31;94071.66;;;31.61;51.35
6345;BME280;3205;42.666;23.264;2023-07-31T11:43:59;94072.22;;;31.65;54.74
6345;BME280;3205;42.666;23.264;2023-07-31T11:46:25;94078.91;;;31.21;54.74
6345;BME280;3205;42.666;23.264;2023-07-31T11:48:52;94077.88;;;31.18;56.69
6345;BME280;3205;42.666;23.264;2023-07-31T11:51:19;94077.56;;;31.31;54.54
6345;BME280;3205;42.666;23.264;2023-07-31T11:53:49;94066.94;;;31.18;51.90
6345;BME280;3205;42.666;23.264;2023-07-31T11:56:19;94059.22;;;31.02;52.60
6345;BME280;3205;42.666;23.264;2023-07-31T11:58:46;94069.09;;;31.00;55.74
6345;BME280;3205;42.666;23.264;2023-07-31T12:01:14;94059.41;;;30.61;57.24
6345;BME280;3205;42.666;23.264;2023-07-31T12:03:41;94075.28;;;30.48;61.21
6345;BME280;3205;42.666;23.264;2023-07-31T12:06:08;94065.63;;;30.62;57.92
6345;BME280;3205;42.666;23.264;2023-07-31T12:08:36;94062.50;;;30.54;57.50
6345;BME280;3205;42.666;23.264;2023-07-31T12:11:04;94062.69;;;30.65;54.94
6345;BME280;3205;42.666;23.264;2023-07-31T12:13:31;94053.66;;;30.59;55.16
6345;BME280;3205;42.666;23.264;2023-07-31T12:15:59;94049.28;;;30.90;63.66
6345;BME280;3205;42.666;23.264;2023-07-31T12:18:27;94050.00;;;31.29;60.59
6345;BME280;3205;42.666;23.264;2023-07-31T12:20:55;94052.03;;;31.48;58.92
6345;BME280;3205;42.666;23.264;2023-07-31T12:23:22;94048.56;;;31.33;58.48
6345;BME280;3205;42.666;23.264;2023-07-31T12:26:00;94049.72;;;31.27;56.96
6345;BME280;3205;42.666;23.264;2023-07-31T12:28:27;94045.38;;;31.20;59.24
6345;BME280;3205;42.666;23.264;2023-07-31T12:30:57;94051.41;;;30.58;59.67
6345;BME280;3205;42.666;23.264;2023-07-31T12:33:24;94047.00;;;30.60;62.57
6345;BME280;3205;42.666;23.264;2023-07-31T12:35:50;94054.34;;;30.83;59.49
6345;BME280;3205;42.666;23.264;2023-07-31T12:38:17;94049.66;;;30.84;57.63
6345;BME280;3205;42.666;23.264;2023-07-31T12:40:43;94049.63;;;31.07;55.11
6345;BME280;3205;42.666;23.264;2023-07-31T12:43:10;94042.25;;;31.27;57.51
6345;BME280;3205;42.666;23.264;2023-07-31T12:45:36;94042.16;;;31.36;56.18
6345;BME280;3205;42.666;23.264;2023-07-31T12:48:03;94041.69;;;31.38;56.33
6345;BME280;3205;42.666;23.264;2023-07-31T12:50:29;94034.50;;;31.40;55.22
6345;BME280;3205;42.666;23.264;2023-07-31T12:52:56;94044.13;;;31.50;55.87
6345;BME280;3205;42.666;23.264;2023-07-31T12:55:24;94029.34;;;31.42;53.66
6345;BME280;3205;42.666;23.264;2023-07-31T12:57:51;94028.38;;;32.08;53.57
6345;BME280;3205;42.666;23.264;2023-07-31T13:00:18;94017.94;;;32.66;52.74
6345;BME280;3205;42.666;23.264;2023-07-31T13:02:44;94024.66;;;32.91;49.53
6345;BME280;3205;42.666;23.264;2023-07-31T13:05:10;94029.38;;;32.65;48.83